sensor_id;sensor_type;location;lat;lon;timestamp;P1;durP1;ratioP1;P2;durP2;ratioP2
60935;SDS011;46804;51.786;19.520;2023-05-19T00:01:04;6.32;;;4.68;;
60935;SDS011;46804;51.786;19.520;2023-05-19T00:05:05;13.65;;;5.15;;
60935;SDS011;46804;51.786;19.520;2023-05-19T00:09:07;10.90;;;6.43;;
60935;SDS011;46804;51.786;19.520;2023-05-19T00:13:09;7.50;;;5.07;;
60935;SDS011;46804;51.786;19.520;2023-05-19T00:17:10;12.07;;;5.68;;
60935;SDS011;46804;51.786;19.520;2023-05-19T00:21:10;10.93;;;5.63;;
60935;SDS011;46804;51.786;19.520;2023-05-19T00:25:11;10.18;;;5.75;;
60935;SDS011;46804;51.786;19.520;2023-05-19T00:29:12;9.32;;;5.95;;
60935;SDS011;46804;51.786;19.520;2023-05-19T00:33:17;11.32;;;5.80;;
60935;SDS011;46804;51.786;19.520;2023-05-19T00:37:18;12.40;;;5.85;;
60935;SDS011;46804;51.786;19.520;2023-05-19T00:41:19;10.65;;;5.95;;
60935;SDS011;46804;51.786;19.520;2023-05-19T00:45:20;8.48;;;5.45;;
60935;SDS011;46804;51.786;19.520;2023-05-19T00:49:21;10.73;;;6.03;;
60935;SDS011;46804;51.786;19.520;2023-05-19T00:53:21;8.98;;;5.10;;
60935;SDS011;46804;51.786;19.520;2023-05-19T00:57:22;11.10;;;5.05;;
60935;SDS011;46804;51.786;19.520;2023-05-19T01:01:23;9.15;;;5.88;;
60935;SDS011;46804;51.786;19.520;2023-05-19T01:05:26;12.73;;;5.20;;
60935;SDS011;46804;51.786;19.520;2023-05-19T01:09:26;9.25;;;5.30;;
60935;SDS011;46804;51.786;19.520;2023-05-19T01:13:27;10.00;;;5.60;;
60935;SDS011;46804;51.786;19.520;2023-05-19T01:17:35;9.82;;;5.65;;
60935;SDS011;46804;51.786;19.520;2023-05-19T01:30:54;10.05;;;5.50;;
60935;SDS011;46804;51.786;19.520;2023-05-19T01:34:57;7.55;;;5.18;;
60935;SDS011;46804;51.786;19.520;2023-05-19T01:39:01;10.10;;;5.53;;
60935;SDS011;46804;51.786;19.520;2023-05-19T01:43:03;7.07;;;5.13;;
60935;SDS011;46804;51.786;19.520;2023-05-19T01:47:04;8.77;;;5.90;;
60935;SDS011;46804;51.786;19.520;2023-05-19T01:51:05;8.18;;;5.43;;
60935;SDS011;46804;51.786;19.520;2023-05-19T01:55:06;8.25;;;5.15;;
60935;SDS011;46804;51.786;19.520;2023-05-19T01:59:43;10.13;;;5.93;;
60935;SDS011;46804;51.786;19.520;2023-05-19T02:08:26;8.32;;;5.43;;
60935;SDS011;46804;51.786;19.520;2023-05-19T02:12:33;7.90;;;4.90;;
60935;SDS011;46804;51.786;19.520;2023-05-19T02:20:37;10.10;;;5.80;;
60935;SDS011;46804;51.786;19.520;2023-05-19T02:24:38;9.35;;;5.40;;
60935;SDS011;46804;51.786;19.520;2023-05-19T02:28:40;7.82;;;5.53;;
60935;SDS011;46804;51.786;19.520;2023-05-19T02:32:41;8.25;;;6.13;;
60935;SDS011;46804;51.786;19.520;2023-05-19T02:36:46;8.98;;;6.10;;
60935;SDS011;46804;51.786;19.520;2023-05-19T02:40:50;11.60;;;6.15;;
60935;SDS011;46804;51.786;19.520;2023-05-19T02:44:53;7.70;;;5.90;;
60935;SDS011;46804;51.786;19.520;2023-05-19T02:48:54;7.45;;;5.25;;
60935;SDS011;46804;51.786;19.520;2023-05-19T02:52:54;8.00;;;5.30;;
60935;SDS011;46804;51.786;19.520;2023-05-19T02:56:55;8.68;;;6.05;;
60935;SDS011;46804;51.786;19.520;2023-05-19T03:00:56;9.20;;;5.97;;
60935;SDS011;46804;51.786;19.520;2023-05-19T03:04:57;11.23;;;6.28;;
60935;SDS011;46804;51.786;19.520;2023-05-19T03:08:57;7.07;;;5.30;;
60935;SDS011;46804;51.786;19.520;2023-05-19T03:12:58;10.40;;;5.68;;
60935;SDS011;46804;51.786;19.520;2023-05-19T03:16:59;8.95;;;6.15;;
60935;SDS011;46804;51.786;19.520;2023-05-19T03:21:00;9.63;;;6.18;;
60935;SDS011;46804;51.786;19.520;2023-05-19T03:25:01;9.65;;;6.07;;
60935;SDS011;46804;51.786;19.520;2023-05-19T03:29:02;7.13;;;5.28;;
60935;SDS011;46804;51.786;19.520;2023-05-19T03:33:03;12.00;;;5.65;;
60935;SDS011;46804;51.786;19.520;2023-05-19T03:37:04;8.68;;;5.38;;
60935;SDS011;46804;51.786;19.520;2023-05-19T03:41:05;8.60;;;5.28;;
60935;SDS011;46804;51.786;19.520;2023-05-19T03:45:06;8.93;;;5.20;;
60935;SDS011;46804;51.786;19.520;2023-05-19T03:49:07;11.63;;;5.80;;
60935;SDS011;46804;51.786;19.520;2023-05-19T03:53:08;10.15;;;5.40;;
60935;SDS011;46804;51.786;19.520;2023-05-19T03:57:08;9.75;;;5.60;;
60935;SDS011;46804;51.786;19.520;2023-05-19T04:01:10;13.07;;;5.68;;
60935;SDS011;46804;51.786;19.520;2023-05-19T04:05:11;6.78;;;5.05;;
60935;SDS011;46804;51.786;19.520;2023-05-19T04:09:12;8.55;;;4.80;;
60935;SDS011;46804;51.786;19.520;2023-05-19T04:13:14;8.30;;;5.00;;
60935;SDS011;46804;51.786;19.520;2023-05-19T04:17:15;9.02;;;5.72;;
60935;SDS011;46804;51.786;19.520;2023-05-19T04:21:15;8.35;;;5.45;;
60935;SDS011;46804;51.786;19.520;2023-05-19T04:25:16;9.40;;;5.88;;
60935;SDS011;46804;51.786;19.520;2023-05-19T04:29:19;8.40;;;5.60;;
60935;SDS011;46804;51.786;19.520;2023-05-19T04:33:20;8.35;;;5.65;;
60935;SDS011;46804;51.786;19.520;2023-05-19T04:37:20;9.98;;;5.40;;
60935;SDS011;46804;51.786;19.520;2023-05-19T04:41:21;7.55;;;4.95;;
60935;SDS011;46804;51.786;19.520;2023-05-19T04:45:22;7.65;;;4.78;;
60935;SDS011;46804;51.786;19.520;2023-05-19T04:49:27;8.25;;;4.68;;
60935;SDS011;46804;51.786;19.520;2023-05-19T04:57:29;7.85;;;4.13;;
60935;SDS011;46804;51.786;19.520;2023-05-19T05:01:30;7.55;;;4.55;;
60935;SDS011;46804;51.786;19.520;2023-05-19T05:05:33;6.15;;;4.13;;
60935;SDS011;46804;51.786;19.520;2023-05-19T05:09:34;10.52;;;4.97;;
60935;SDS011;46804;51.786;19.520;2023-05-19T05:13:35;6.03;;;3.42;;
60935;SDS011;46804;51.786;19.520;2023-05-19T05:17:36;6.70;;;3.90;;
60935;SDS011;46804;51.786;19.520;2023-05-19T05:21:37;7.43;;;3.90;;
60935;SDS011;46804;51.786;19.520;2023-05-19T05:25:38;7.85;;;3.40;;
60935;SDS011;46804;51.786;19.520;2023-05-19T05:29:38;6.22;;;3.58;;
60935;SDS011;46804;51.786;19.520;2023-05-19T05:33:39;5.55;;;3.08;;
60935;SDS011;46804;51.786;19.520;2023-05-19T05:37:40;5.95;;;3.35;;
60935;SDS011;46804;51.786;19.520;2023-05-19T05:41:41;6.72;;;3.38;;
60935;SDS011;46804;51.786;19.520;2023-05-19T05:45:42;6.20;;;3.72;;
60935;SDS011;46804;51.786;19.520;2023-05-19T05:49:42;8.77;;;3.88;;
60935;SDS011;46804;51.786;19.520;2023-05-19T05:53:50;5.15;;;3.33;;
60935;SDS011;46804;51.786;19.520;2023-05-19T05:57:52;5.80;;;3.45;;
60935;SDS011;46804;51.786;19.520;2023-05-19T06:01:53;7.47;;;4.10;;
60935;SDS011;46804;51.786;19.520;2023-05-19T06:05:54;7.00;;;4.20;;
60935;SDS011;46804;51.786;19.520;2023-05-19T06:09:55;7.40;;;3.65;;
60935;SDS011;46804;51.786;19.520;2023-05-19T06:13:56;6.57;;;3.67;;
60935;SDS011;46804;51.786;19.520;2023-05-19T06:17:56;6.93;;;3.40;;
60935;SDS011;46804;51.786;19.520;2023-05-19T06:21:57;5.65;;;3.42;;
60935;SDS011;46804;51.786;19.520;2023-05-19T06:25:57;9.10;;;3.22;;
60935;SDS011;46804;51.786;19.520;2023-05-19T06:29:58;7.90;;;3.50;;
60935;SDS011;46804;51.786;19.520;2023-05-19T06:33:59;7.40;;;3.80;;
60935;SDS011;46804;51.786;19.520;2023-05-19T06:38:00;7.88;;;3.88;;
60935;SDS011;46804;51.786;19.520;2023-05-19T06:42:00;6.65;;;4.20;;
60935;SDS011;46804;51.786;19.520;2023-05-19T06:46:01;8.95;;;4.25;;
60935;SDS011;46804;51.786;19.520;2023-05-19T06:50:02;7.45;;;4.57;;
60935;SDS011;46804;51.786;19.520;2023-05-19T06:54:03;6.97;;;3.75;;
60935;SDS011;46804;51.786;19.520;2023-05-19T06:58:03;7.18;;;4.15;;
60935;SDS011;46804;51.786;19.520;2023-05-19T07:02:04;9.50;;;4.32;;
60935;SDS011;46804;51.786;19.520;2023-05-19T07:06:05;6.82;;;3.72;;
60935;SDS011;46804;51.786;19.520;2023-05-19T07:10:06;6.70;;;3.53;;
60935;SDS011;46804;51.786;19.520;2023-05-19T07:14:07;10.27;;;4.20;;
60935;SDS011;46804;51.786;19.520;2023-05-19T07:18:08;6.07;;;4.07;;
60935;SDS011;46804;51.786;19.520;2023-05-19T07:22:09;7.22;;;3.67;;
60935;SDS011;46804;51.786;19.520;2023-05-19T07:26:09;8.25;;;3.80;;
60935;SDS011;46804;51.786;19.520;2023-05-19T07:30:10;8.15;;;3.38;;
60935;SDS011;46804;51.786;19.520;2023-05-19T07:34:11;5.18;;;2.83;;
60935;SDS011;46804;51.786;19.520;2023-05-19T07:38:12;5.10;;;3.35;;
60935;SDS011;46804;51.786;19.520;2023-05-19T07:42:13;4.80;;;2.75;;
60935;SDS011;46804;51.786;19.520;2023-05-19T07:46:13;5.85;;;2.65;;
60935;SDS011;46804;51.786;19.520;2023-05-19T07:50:14;10.45;;;2.95;;
60935;SDS011;46804;51.786;19.520;2023-05-19T07:54:15;6.47;;;2.95;;
60935;SDS011;46804;51.786;19.520;2023-05-19T07:58:16;6.78;;;2.83;;
60935;SDS011;46804;51.786;19.520;2023-05-19T08:02:17;6.32;;;3.05;;
60935;SDS011;46804;51.786;19.520;2023-05-19T08:06:18;5.57;;;2.80;;
60935;SDS011;46804;51.786;19.520;2023-05-19T08:10:19;7.25;;;3.33;;
60935;SDS011;46804;51.786;19.520;2023-05-19T08:14:19;5.45;;;2.80;;
60935;SDS011;46804;51.786;19.520;2023-05-19T08:18:22;6.97;;;3.28;;
60935;SDS011;46804;51.786;19.520;2023-05-19T08:22:22;3.90;;;2.53;;
60935;SDS011;46804;51.786;19.520;2023-05-19T08:26:23;8.32;;;3.28;;
60935;SDS011;46804;51.786;19.520;2023-05-19T08:30:24;7.00;;;3.00;;
60935;SDS011;46804;51.786;19.520;2023-05-19T08:34:24;5.78;;;2.90;;
60935;SDS011;46804;51.786;19.520;2023-05-19T08:38:25;5.22;;;2.80;;
60935;SDS011;46804;51.786;19.520;2023-05-19T08:42:26;5.70;;;2.72;;
60935;SDS011;46804;51.786;19.520;2023-05-19T08:46:27;5.82;;;2.67;;
60935;SDS011;46804;51.786;19.520;2023-05-19T08:50:29;4.85;;;3.08;;
60935;SDS011;46804;51.786;19.520;2023-05-19T08:54:33;6.90;;;3.08;;
60935;SDS011;46804;51.786;19.520;2023-05-19T08:58:41;5.07;;;3.40;;
60935;SDS011;46804;51.786;19.520;2023-05-19T09:02:43;5.28;;;3.17;;
60935;SDS011;46804;51.786;19.520;2023-05-19T09:06:45;7.93;;;3.45;;
60935;SDS011;46804;51.786;19.520;2023-05-19T09:10:46;6.45;;;3.45;;
60935;SDS011;46804;51.786;19.520;2023-05-19T09:14:47;6.07;;;3.40;;
60935;SDS011;46804;51.786;19.520;2023-05-19T09:18:54;5.95;;;3.30;;
60935;SDS011;46804;51.786;19.520;2023-05-19T09:22:56;7.07;;;3.47;;
60935;SDS011;46804;51.786;19.520;2023-05-19T09:26:59;8.85;;;3.67;;
60935;SDS011;46804;51.786;19.520;2023-05-19T09:31:00;5.80;;;4.00;;
60935;SDS011;46804;51.786;19.520;2023-05-19T09:35:02;6.00;;;3.78;;
60935;SDS011;46804;51.786;19.520;2023-05-19T09:39:11;6.93;;;3.85;;
60935;SDS011;46804;51.786;19.520;2023-05-19T09:43:12;7.70;;;3.95;;
60935;SDS011;46804;51.786;19.520;2023-05-19T09:47:13;6.15;;;3.55;;
60935;SDS011;46804;51.786;19.520;2023-05-19T09:51:15;6.32;;;3.60;;
60935;SDS011;46804;51.786;19.520;2023-05-19T09:55:17;7.47;;;3.53;;
60935;SDS011;46804;51.786;19.520;2023-05-19T09:59:19;7.32;;;3.92;;
60935;SDS011;46804;51.786;19.520;2023-05-19T10:03:24;7.28;;;3.60;;
60935;SDS011;46804;51.786;19.520;2023-05-19T10:07:25;6.82;;;3.67;;
60935;SDS011;46804;51.786;19.520;2023-05-19T10:11:26;6.63;;;3.92;;
60935;SDS011;46804;51.786;19.520;2023-05-19T10:15:29;9.32;;;4.10;;
60935;SDS011;46804;51.786;19.520;2023-05-19T10:19:30;7.78;;;3.65;;
60935;SDS011;46804;51.786;19.520;2023-05-19T10:23:30;6.53;;;4.07;;
60935;SDS011;46804;51.786;19.520;2023-05-19T10:27:32;9.45;;;4.85;;
60935;SDS011;46804;51.786;19.520;2023-05-19T10:31:34;7.72;;;4.68;;
60935;SDS011;46804;51.786;19.520;2023-05-19T10:39:56;8.55;;;4.95;;
60935;SDS011;46804;51.786;19.520;2023-05-19T10:48:27;12.55;;;5.05;;
60935;SDS011;46804;51.786;19.520;2023-05-19T10:52:36;9.73;;;5.78;;
60935;SDS011;46804;51.786;19.520;2023-05-19T10:56:38;14.55;;;7.53;;
60935;SDS011;46804;51.786;19.520;2023-05-19T11:04:46;10.68;;;6.07;;
60935;SDS011;46804;51.786;19.520;2023-05-19T11:08:57;8.68;;;5.32;;
60935;SDS011;46804;51.786;19.520;2023-05-19T11:13:04;8.77;;;4.82;;
60935;SDS011;46804;51.786;19.520;2023-05-19T11:17:05;8.93;;;5.68;;
60935;SDS011;46804;51.786;19.520;2023-05-19T11:21:13;10.10;;;5.72;;
60935;SDS011;46804;51.786;19.520;2023-05-19T11:25:14;11.13;;;7.03;;
60935;SDS011;46804;51.786;19.520;2023-05-19T11:29:37;13.20;;;6.63;;
60935;SDS011;46804;51.786;19.520;2023-05-19T11:33:38;8.75;;;5.97;;
60935;SDS011;46804;51.786;19.520;2023-05-19T11:37:39;9.35;;;6.30;;
60935;SDS011;46804;51.786;19.520;2023-05-19T11:41:42;12.30;;;6.67;;
60935;SDS011;46804;51.786;19.520;2023-05-19T11:45:42;9.25;;;6.63;;
60935;SDS011;46804;51.786;19.520;2023-05-19T11:49:47;10.98;;;5.28;;
60935;SDS011;46804;51.786;19.520;2023-05-19T11:53:48;11.27;;;5.90;;
60935;SDS011;46804;51.786;19.520;2023-05-19T11:57:50;8.38;;;5.70;;
60935;SDS011;46804;51.786;19.520;2023-05-19T12:02:17;9.00;;;5.28;;
60935;SDS011;46804;51.786;19.520;2023-05-19T12:06:20;10.73;;;5.80;;
60935;SDS011;46804;51.786;19.520;2023-05-19T12:10:25;8.77;;;5.20;;
60935;SDS011;46804;51.786;19.520;2023-05-19T12:14:28;7.35;;;5.40;;
60935;SDS011;46804;51.786;19.520;2023-05-19T12:18:29;13.70;;;5.07;;
60935;SDS011;46804;51.786;19.520;2023-05-19T12:22:33;12.00;;;5.85;;
60935;SDS011;46804;51.786;19.520;2023-05-19T12:26:34;7.72;;;5.78;;
60935;SDS011;46804;51.786;19.520;2023-05-19T12:30:36;12.90;;;5.90;;
60935;SDS011;46804;51.786;19.520;2023-05-19T12:34:37;9.48;;;6.15;;
60935;SDS011;46804;51.786;19.520;2023-05-19T12:38:38;7.43;;;5.53;;
60935;SDS011;46804;51.786;19.520;2023-05-19T12:42:43;9.33;;;6.67;;
60935;SDS011;46804;51.786;19.520;2023-05-19T12:46:44;11.43;;;6.90;;
60935;SDS011;46804;51.786;19.520;2023-05-19T12:50:45;14.43;;;8.00;;
60935;SDS011;46804;51.786;19.520;2023-05-19T12:54:45;13.52;;;8.68;;
60935;SDS011;46804;51.786;19.520;2023-05-19T12:58:46;12.55;;;7.57;;
60935;SDS011;46804;51.786;19.520;2023-05-19T13:02:56;10.97;;;6.70;;
60935;SDS011;46804;51.786;19.520;2023-05-19T13:07:01;9.73;;;6.53;;
60935;SDS011;46804;51.786;19.520;2023-05-19T13:11:02;12.18;;;7.00;;
60935;SDS011;46804;51.786;19.520;2023-05-19T13:15:03;11.95;;;6.25;;
60935;SDS011;46804;51.786;19.520;2023-05-19T13:19:05;10.95;;;7.30;;
60935;SDS011;46804;51.786;19.520;2023-05-19T13:23:05;11.05;;;7.90;;
60935;SDS011;46804;51.786;19.520;2023-05-19T13:27:06;14.32;;;8.10;;
60935;SDS011;46804;51.786;19.520;2023-05-19T13:31:07;12.43;;;8.02;;
60935;SDS011;46804;51.786;19.520;2023-05-19T13:35:08;16.23;;;7.72;;
60935;SDS011;46804;51.786;19.520;2023-05-19T13:39:09;13.55;;;7.68;;
60935;SDS011;46804;51.786;19.520;2023-05-19T13:43:10;14.80;;;7.50;;
60935;SDS011;46804;51.786;19.520;2023-05-19T13:47:11;13.85;;;7.97;;
60935;SDS011;46804;51.786;19.520;2023-05-19T13:51:12;16.38;;;9.75;;
60935;SDS011;46804;51.786;19.520;2023-05-19T13:55:12;18.98;;;8.77;;
60935;SDS011;46804;51.786;19.520;2023-05-19T13:59:13;18.38;;;9.05;;
60935;SDS011;46804;51.786;19.520;2023-05-19T14:03:16;15.00;;;8.88;;
60935;SDS011;46804;51.786;19.520;2023-05-19T14:07:18;20.48;;;9.32;;
60935;SDS011;46804;51.786;19.520;2023-05-19T14:11:19;17.73;;;9.35;;
60935;SDS011;46804;51.786;19.520;2023-05-19T14:15:21;18.70;;;9.82;;
60935;SDS011;46804;51.786;19.520;2023-05-19T14:19:22;16.80;;;9.27;;
60935;SDS011;46804;51.786;19.520;2023-05-19T14:23:23;15.07;;;8.55;;
60935;SDS011;46804;51.786;19.520;2023-05-19T14:27:24;16.50;;;9.43;;
60935;SDS011;46804;51.786;19.520;2023-05-19T14:31:24;17.90;;;9.55;;
60935;SDS011;46804;51.786;19.520;2023-05-19T14:35:25;17.33;;;9.65;;
60935;SDS011;46804;51.786;19.520;2023-05-19T14:39:26;18.10;;;10.05;;
60935;SDS011;46804;51.786;19.520;2023-05-19T14:43:26;19.05;;;11.05;;
60935;SDS011;46804;51.786;19.520;2023-05-19T14:47:27;17.10;;;8.48;;
60935;SDS011;46804;51.786;19.520;2023-05-19T14:51:28;19.30;;;10.25;;
60935;SDS011;46804;51.786;19.520;2023-05-19T14:55:28;15.75;;;9.32;;
60935;SDS011;46804;51.786;19.520;2023-05-19T14:59:29;17.85;;;9.80;;
60935;SDS011;46804;51.786;19.520;2023-05-19T15:03:30;18.42;;;9.98;;
60935;SDS011;46804;51.786;19.520;2023-05-19T15:07:31;16.75;;;9.27;;
60935;SDS011;46804;51.786;19.520;2023-05-19T15:11:32;18.83;;;11.15;;
60935;SDS011;46804;51.786;19.520;2023-05-19T15:15:32;17.95;;;10.57;;
60935;SDS011;46804;51.786;19.520;2023-05-19T15:19:35;17.50;;;10.20;;
60935;SDS011;46804;51.786;19.520;2023-05-19T15:23:36;21.58;;;16.38;;
60935;SDS011;46804;51.786;19.520;2023-05-19T15:27:36;19.20;;;11.55;;
60935;SDS011;46804;51.786;19.520;2023-05-19T15:31:37;21.77;;;10.77;;
60935;SDS011;46804;51.786;19.520;2023-05-19T15:35:38;14.30;;;9.90;;
60935;SDS011;46804;51.786;19.520;2023-05-19T15:39:38;18.95;;;10.10;;
60935;SDS011;46804;51.786;19.520;2023-05-19T15:43:39;17.38;;;9.98;;
60935;SDS011;46804;51.786;19.520;2023-05-19T15:47:40;20.58;;;11.77;;
60935;SDS011;46804;51.786;19.520;2023-05-19T15:51:41;15.85;;;9.55;;
60935;SDS011;46804;51.786;19.520;2023-05-19T15:55:42;22.90;;;12.25;;
60935;SDS011;46804;51.786;19.520;2023-05-19T15:59:42;15.98;;;9.50;;
60935;SDS011;46804;51.786;19.520;2023-05-19T16:03:43;14.32;;;9.82;;
60935;SDS011;46804;51.786;19.520;2023-05-19T16:07:44;18.15;;;10.52;;
60935;SDS011;46804;51.786;19.520;2023-05-19T16:11:45;17.77;;;10.43;;
60935;SDS011;46804;51.786;19.520;2023-05-19T16:15:46;18.15;;;9.70;;
60935;SDS011;46804;51.786;19.520;2023-05-19T16:19:47;21.27;;;10.02;;
60935;SDS011;46804;51.786;19.520;2023-05-19T16:23:47;17.45;;;9.75;;
60935;SDS011;46804;51.786;19.520;2023-05-19T16:27:48;20.67;;;11.00;;
60935;SDS011;46804;51.786;19.520;2023-05-19T16:31:50;21.95;;;11.55;;
60935;SDS011;46804;51.786;19.520;2023-05-19T16:35:50;19.45;;;10.05;;
60935;SDS011;46804;51.786;19.520;2023-05-19T16:39:51;19.15;;;10.52;;
60935;SDS011;46804;51.786;19.520;2023-05-19T16:43:52;18.10;;;9.68;;
60935;SDS011;46804;51.786;19.520;2023-05-19T16:47:52;18.65;;;11.18;;
60935;SDS011;46804;51.786;19.520;2023-05-19T16:51:54;15.35;;;10.00;;
60935;SDS011;46804;51.786;19.520;2023-05-19T16:55:55;15.80;;;8.98;;
60935;SDS011;46804;51.786;19.520;2023-05-19T16:59:58;14.07;;;8.50;;
60935;SDS011;46804;51.786;19.520;2023-05-19T17:03:58;20.48;;;9.68;;
60935;SDS011;46804;51.786;19.520;2023-05-19T17:07:59;15.40;;;9.18;;
60935;SDS011;46804;51.786;19.520;2023-05-19T17:12:00;18.92;;;9.40;;
60935;SDS011;46804;51.786;19.520;2023-05-19T17:16:01;19.75;;;11.52;;
60935;SDS011;46804;51.786;19.520;2023-05-19T17:20:02;15.52;;;9.68;;
60935;SDS011;46804;51.786;19.520;2023-05-19T17:24:03;21.35;;;10.90;;
60935;SDS011;46804;51.786;19.520;2023-05-19T17:28:03;19.92;;;10.13;;
60935;SDS011;46804;51.786;19.520;2023-05-19T17:32:04;18.60;;;9.75;;
60935;SDS011;46804;51.786;19.520;2023-05-19T17:36:06;19.52;;;11.57;;
60935;SDS011;46804;51.786;19.520;2023-05-19T17:40:08;18.63;;;10.68;;
60935;SDS011;46804;51.786;19.520;2023-05-19T17:44:09;18.50;;;10.57;;
60935;SDS011;46804;51.786;19.520;2023-05-19T17:48:10;15.73;;;10.93;;
60935;SDS011;46804;51.786;19.520;2023-05-19T17:52:11;20.92;;;11.80;;
60935;SDS011;46804;51.786;19.520;2023-05-19T17:56:12;22.10;;;11.85;;
60935;SDS011;46804;51.786;19.520;2023-05-19T18:00:13;19.55;;;10.77;;
60935;SDS011;46804;51.786;19.520;2023-05-19T18:04:15;24.08;;;11.98;;
60935;SDS011;46804;51.786;19.520;2023-05-19T18:08:16;23.50;;;12.30;;
60935;SDS011;46804;51.786;19.520;2023-05-19T18:12:18;23.27;;;12.27;;
60935;SDS011;46804;51.786;19.520;2023-05-19T18:16:19;23.00;;;13.00;;
60935;SDS011;46804;51.786;19.520;2023-05-19T18:20:19;29.63;;;16.42;;
60935;SDS011;46804;51.786;19.520;2023-05-19T18:24:20;27.60;;;16.77;;
60935;SDS011;46804;51.786;19.520;2023-05-19T18:28:22;23.08;;;15.40;;
60935;SDS011;46804;51.786;19.520;2023-05-19T18:32:22;28.90;;;16.73;;
60935;SDS011;46804;51.786;19.520;2023-05-19T18:36:23;25.73;;;16.40;;
60935;SDS011;46804;51.786;19.520;2023-05-19T18:40:24;27.17;;;17.55;;
60935;SDS011;46804;51.786;19.520;2023-05-19T18:44:24;25.35;;;15.05;;
60935;SDS011;46804;51.786;19.520;2023-05-19T18:48:25;23.60;;;13.50;;
60935;SDS011;46804;51.786;19.520;2023-05-19T18:52:26;21.15;;;13.05;;
60935;SDS011;46804;51.786;19.520;2023-05-19T18:56:28;20.48;;;12.45;;
60935;SDS011;46804;51.786;19.520;2023-05-19T19:00:30;21.10;;;14.25;;
60935;SDS011;46804;51.786;19.520;2023-05-19T19:04:32;23.00;;;13.73;;
60935;SDS011;46804;51.786;19.520;2023-05-19T19:08:33;20.63;;;12.05;;
60935;SDS011;46804;51.786;19.520;2023-05-19T19:12:34;23.55;;;12.95;;
60935;SDS011;46804;51.786;19.520;2023-05-19T19:16:35;22.58;;;13.68;;
60935;SDS011;46804;51.786;19.520;2023-05-19T19:20:36;20.23;;;12.50;;
60935;SDS011;46804;51.786;19.520;2023-05-19T19:24:36;19.90;;;13.70;;
60935;SDS011;46804;51.786;19.520;2023-05-19T19:28:37;27.52;;;14.07;;
60935;SDS011;46804;51.786;19.520;2023-05-19T19:32:38;25.40;;;13.57;;
60935;SDS011;46804;51.786;19.520;2023-05-19T19:36:39;25.45;;;13.75;;
60935;SDS011;46804;51.786;19.520;2023-05-19T19:40:40;26.63;;;14.40;;
60935;SDS011;46804;51.786;19.520;2023-05-19T19:44:41;22.02;;;14.32;;
60935;SDS011;46804;51.786;19.520;2023-05-19T19:48:41;22.35;;;13.63;;
60935;SDS011;46804;51.786;19.520;2023-05-19T19:52:42;27.73;;;14.07;;
60935;SDS011;46804;51.786;19.520;2023-05-19T19:56:43;24.13;;;14.40;;
60935;SDS011;46804;51.786;19.520;2023-05-19T20:00:44;22.08;;;13.70;;
60935;SDS011;46804;51.786;19.520;2023-05-19T20:04:44;22.92;;;14.00;;
60935;SDS011;46804;51.786;19.520;2023-05-19T20:08:46;27.75;;;14.40;;
60935;SDS011;46804;51.786;19.520;2023-05-19T20:12:46;24.83;;;14.68;;
60935;SDS011;46804;51.786;19.520;2023-05-19T20:16:48;24.35;;;14.68;;
60935;SDS011;46804;51.786;19.520;2023-05-19T20:20:49;29.95;;;16.20;;
60935;SDS011;46804;51.786;19.520;2023-05-19T20:24:50;24.60;;;13.75;;
60935;SDS011;46804;51.786;19.520;2023-05-19T20:28:51;24.40;;;13.85;;
60935;SDS011;46804;51.786;19.520;2023-05-19T20:32:52;27.08;;;14.82;;
60935;SDS011;46804;51.786;19.520;2023-05-19T20:36:52;24.25;;;15.35;;
60935;SDS011;46804;51.786;19.520;2023-05-19T20:40:53;24.52;;;13.95;;
60935;SDS011;46804;51.786;19.520;2023-05-19T20:44:54;22.80;;;13.43;;
60935;SDS011;46804;51.786;19.520;2023-05-19T20:48:55;24.63;;;14.50;;
60935;SDS011;46804;51.786;19.520;2023-05-19T20:52:55;29.20;;;16.30;;
60935;SDS011;46804;51.786;19.520;2023-05-19T20:56:56;26.60;;;16.13;;
60935;SDS011;46804;51.786;19.520;2023-05-19T21:00:57;24.33;;;14.13;;
60935;SDS011;46804;51.786;19.520;2023-05-19T21:04:58;24.88;;;14.63;;
60935;SDS011;46804;51.786;19.520;2023-05-19T21:08:58;30.20;;;14.20;;
60935;SDS011;46804;51.786;19.520;2023-05-19T21:13:02;29.42;;;16.10;;
60935;SDS011;46804;51.786;19.520;2023-05-19T21:17:03;29.38;;;16.30;;
60935;SDS011;46804;51.786;19.520;2023-05-19T21:21:04;29.75;;;15.52;;
60935;SDS011;46804;51.786;19.520;2023-05-19T21:25:05;37.03;;;16.10;;
60935;SDS011;46804;51.786;19.520;2023-05-19T21:29:06;28.00;;;15.52;;
60935;SDS011;46804;51.786;19.520;2023-05-19T21:33:07;38.22;;;18.55;;
60935;SDS011;46804;51.786;19.520;2023-05-19T21:37:08;41.47;;;18.42;;
60935;SDS011;46804;51.786;19.520;2023-05-19T21:41:09;42.38;;;20.45;;
60935;SDS011;46804;51.786;19.520;2023-05-19T21:45:09;27.90;;;15.20;;
60935;SDS011;46804;51.786;19.520;2023-05-19T21:49:10;27.63;;;15.32;;
60935;SDS011;46804;51.786;19.520;2023-05-19T21:53:11;22.67;;;15.32;;
60935;SDS011;46804;51.786;19.520;2023-05-19T21:57:12;22.33;;;14.30;;
60935;SDS011;46804;51.786;19.520;2023-05-19T22:01:12;22.77;;;14.00;;
60935;SDS011;46804;51.786;19.520;2023-05-19T22:05:13;22.50;;;13.95;;
60935;SDS011;46804;51.786;19.520;2023-05-19T22:09:14;20.80;;;13.35;;
60935;SDS011;46804;51.786;19.520;2023-05-19T22:13:15;26.63;;;14.63;;
60935;SDS011;46804;51.786;19.520;2023-05-19T22:17:16;31.95;;;13.93;;
60935;SDS011;46804;51.786;19.520;2023-05-19T22:21:16;24.00;;;13.73;;
60935;SDS011;46804;51.786;19.520;2023-05-19T22:25:17;26.40;;;13.80;;
60935;SDS011;46804;51.786;19.520;2023-05-19T22:29:18;22.90;;;14.57;;
60935;SDS011;46804;51.786;19.520;2023-05-19T22:33:19;19.88;;;14.13;;
60935;SDS011;46804;51.786;19.520;2023-05-19T22:37:21;24.73;;;13.80;;
60935;SDS011;46804;51.786;19.520;2023-05-19T22:41:22;20.40;;;14.10;;
60935;SDS011;46804;51.786;19.520;2023-05-19T22:45:23;24.42;;;14.57;;
60935;SDS011;46804;51.786;19.520;2023-05-19T22:49:23;32.97;;;16.42;;
60935;SDS011;46804;51.786;19.520;2023-05-19T22:53:25;39.40;;;21.75;;
60935;SDS011;46804;51.786;19.520;2023-05-19T22:57:26;39.92;;;21.35;;
60935;SDS011;46804;51.786;19.520;2023-05-19T23:01:26;22.85;;;15.40;;
60935;SDS011;46804;51.786;19.520;2023-05-19T23:05:27;18.25;;;13.40;;
60935;SDS011;46804;51.786;19.520;2023-05-19T23:09:28;20.63;;;14.00;;
60935;SDS011;46804;51.786;19.520;2023-05-19T23:13:29;26.02;;;15.40;;
60935;SDS011;46804;51.786;19.520;2023-05-19T23:17:31;18.85;;;13.60;;
60935;SDS011;46804;51.786;19.520;2023-05-19T23:21:31;20.20;;;13.90;;
60935;SDS011;46804;51.786;19.520;2023-05-19T23:25:32;25.55;;;14.95;;
60935;SDS011;46804;51.786;19.520;2023-05-19T23:29:33;21.63;;;13.52;;
60935;SDS011;46804;51.786;19.520;2023-05-19T23:33:34;24.63;;;14.95;;
60935;SDS011;46804;51.786;19.520;2023-05-19T23:37:34;22.17;;;13.82;;
60935;SDS011;46804;51.786;19.520;2023-05-19T23:41:35;22.25;;;13.35;;
60935;SDS011;46804;51.786;19.520;2023-05-19T23:45:36;21.70;;;14.70;;
60935;SDS011;46804;51.786;19.520;2023-05-19T23:49:37;26.58;;;13.90;;
60935;SDS011;46804;51.786;19.520;2023-05-19T23:53:37;21.08;;;14.88;;
60935;SDS011;46804;51.786;19.520;2023-05-19T23:57:38;24.40;;;15.10;;
